CheckWX is a tool to help pilots better visualize weather data.  It is not intended as a substitute for an official pre-flight weather briefing.

20:24:49 UTC

KDTO METAR
Denton Enterprise Airport
Denton, Texas, USA
Current

32 mins ago

KDTO 201953Z 20014KT 10SM CLR 25/08 A3000 RMK AO2 SLP153 T02500078 $
Observed
Apr-20 @ 19:53 UTC
Wind
  • 200° at 14 KTS
Visibility
10 SM
Flight Rules
VFR
Cloud Levels
  • Clear skies
Temperature
25°C / 77°F
Dewpoint
C / 46°F
Humidity
34%
Altimeter
30" Hg
Pressure
1015.92 hPa
Previous

2 hours ago

KDTO 201853Z 18012KT 10SM CLR 24/07 A3003 RMK AO2 SLP164 T02440067 $
Observed
Apr-20 @ 18:53 UTC
Wind
  • 180° at 12 KTS
Visibility
10 SM
Flight Rules
VFR
Cloud Levels
  • Clear skies
Temperature
24°C / 75°F
Dewpoint
C / 45°F
Humidity
34%
Altimeter
30.03" Hg
Pressure
1016.92 hPa
Previous

3 hours ago

KDTO 201753Z 19011G18KT 10SM CLR 23/06 A3005 RMK AO2 SLP172 T02280061 10228 20056 58014 $
Observed
Apr-20 @ 17:53 UTC
Wind
  • 190° at 11 KTS
  • Gusting to 18 KTS
Visibility
10 SM
Flight Rules
VFR
Cloud Levels
  • Clear skies
Temperature
23°C / 73°F
Dewpoint
C / 43°F
Humidity
33%
Altimeter
30.05" Hg
Pressure
1017.62 hPa